Terminal Aerodrome Forecast
Issued by NWS

Home | Current Version | Previous Version | Text Only | Print | Product List | Glossary On
Versions: 1 2 3 4 5 6 7 8 9 10 11 12 13 14 15
000
FTUS45 KGJT 270533
TAFMTJ
TAF
KMTJ 270533Z 2706/2806 15010KT P6SM SKC
     FM270900 17005KT P6SM FEW250
     FM271700 31008KT P6SM BKN120
     FM272000 31012G20KT P6SM SCT200=

USA.gov is the U.S. government's official web portal to all federal, state and local government web resources and services.